Terminal Aerodrome Forecast
Issued by NWS Upton, NY

Current Version | Previous Version | Text Only | Print | Product List | Glossary On
Versions: 1 2 3 4 5 6 7 8 9 10 11 12 13 14 15 16 17 18 19 20 21 22 23 24 25 26 27 28 29 30 31 32 33
000
FTUS41 KOKX 110851 AAC
TAFISP
TAF AMD
KISP 110851Z 1109/1206 VRB05KT P6SM SCT012 OVC080
      TEMPO 1109/1111 BKN012
     FM111100 VRB03KT P6SM FEW012 OVC050
      TEMPO 1111/1115 5SM -SHRA BR BKN012 OVC040
     FM111500 34005KT P6SM VCSH FEW025 OVC050
     FM111700 30006KT P6SM BKN050
     FM112200 20005KT P6SM SCT050
     FM120200 25004KT P6SM SCT090 BKN250=

USA.gov is the U.S. government's official web portal to all federal, state and local government web resources and services.